createdAt,value
2018-02-17T00:01:43.185Z,96114
2018-02-17T00:04:11.312Z,96111
2018-02-17T00:06:39.487Z,96105
2018-02-17T00:09:07.623Z,96105
2018-02-17T00:11:35.761Z,96109
2018-02-17T00:14:03.911Z,96095
2018-02-17T00:16:32.075Z,96090
2018-02-17T00:19:00.980Z,96091
2018-02-17T00:21:29.102Z,96094
2018-02-17T00:23:57.513Z,96089
2018-02-17T00:26:25.626Z,96078
2018-02-17T00:28:53.787Z,96077
2018-02-17T00:31:21.931Z,96079
2018-02-17T00:33:50.101Z,96097
2018-02-17T00:36:18.243Z,96089
2018-02-17T00:38:46.363Z,96091
2018-02-17T00:41:15.257Z,96094
2018-02-17T00:43:44.229Z,96086
2018-02-17T00:46:12.593Z,96082
2018-02-17T00:48:44.298Z,96087
2018-02-17T00:51:13.206Z,96081
2018-02-17T00:53:45.400Z,96091
2018-02-17T00:56:13.505Z,96084
2018-02-17T00:58:41.664Z,96085
2018-02-17T01:01:09.832Z,96082
2018-02-17T01:03:39.699Z,96078
2018-02-17T01:06:08.721Z,96069
2018-02-17T01:08:36.865Z,96070
2018-02-17T01:11:10.045Z,96065
2018-02-17T01:13:40.861Z,96073
2018-02-17T01:16:09.138Z,96080
2018-02-17T01:18:37.265Z,96078
2018-02-17T01:21:06.088Z,96075
2018-02-17T01:23:34.925Z,96075
2018-02-17T01:26:04.574Z,96072
2018-02-17T01:28:33.426Z,96057
2018-02-17T01:31:02.303Z,96048
2018-02-17T01:33:30.785Z,96069
2018-02-17T01:35:59.090Z,96060
2018-02-17T01:38:27.382Z,96050
2018-02-17T01:40:55.619Z,96045
2018-02-17T01:43:23.873Z,96045
2018-02-17T01:45:54.980Z,96031
2018-02-17T01:48:23.152Z,96036
2018-02-17T01:50:51.333Z,96027
2018-02-17T01:53:19.480Z,96019
2018-02-17T01:55:49.187Z,96018
2018-02-17T01:58:22.279Z,96005
2018-02-17T02:00:51.219Z,96014
2018-02-17T02:03:19.465Z,96004
2018-02-17T02:05:47.570Z,95997
2018-02-17T02:08:15.729Z,96002
2018-02-17T02:10:43.871Z,95990
2018-02-17T02:13:12.812Z,95990
2018-02-17T02:15:41.844Z,95988
2018-02-17T02:18:14.815Z,95985
2018-02-17T02:20:42.953Z,95986
2018-02-17T02:23:11.079Z,95977
2018-02-17T02:25:40.032Z,95960
2018-02-17T02:28:08.374Z,95966
2018-02-17T02:30:36.882Z,95959
2018-02-17T02:33:13.324Z,95955
2018-02-17T02:35:41.452Z,95961
2018-02-17T02:38:09.598Z,95945
2018-02-17T02:40:37.738Z,95941
2018-02-17T02:43:07.362Z,95937
2018-02-17T02:45:49.396Z,95952
2018-02-17T02:48:24.206Z,95943
2018-02-17T02:50:52.340Z,95933
2018-02-17T02:53:21.403Z,95925
2018-02-17T02:55:49.538Z,95930
2018-02-17T02:58:17.989Z,95918
2018-02-17T03:00:46.108Z,95910
2018-02-17T03:03:14.228Z,95894
2018-02-17T03:05:42.375Z,95898
2018-02-17T03:08:10.550Z,95894
2018-02-17T03:10:38.765Z,95894
2018-02-17T03:13:06.876Z,95889
2018-02-17T03:15:35.102Z,95898
2018-02-17T03:18:03.992Z,95876
2018-02-17T03:20:36.005Z,95874
2018-02-17T03:23:04.131Z,95873
2018-02-17T03:25:32.861Z,95865
2018-02-17T03:28:01.070Z,95855
2018-02-17T03:30:29.254Z,95849
2018-02-17T03:32:58.267Z,95844
2018-02-17T03:35:26.375Z,95851
2018-02-17T03:37:54.480Z,95834
2018-02-17T03:40:23.371Z,95828
2018-02-17T03:42:51.643Z,95830
2018-02-17T03:45:19.750Z,95838
2018-02-17T03:47:47.858Z,95847
2018-02-17T03:50:16.012Z,95832
2018-02-17T03:52:44.199Z,95818
2018-02-17T03:55:12.326Z,95817
2018-02-17T03:57:41.307Z,95805
2018-02-17T04:00:10.248Z,95818
2018-02-17T04:02:38.788Z,95812
2018-02-17T04:05:11.837Z,95811
2018-02-17T04:07:41.716Z,95810
2018-02-17T04:10:10.751Z,95807
2018-02-17T04:12:46.919Z,95801
2018-02-17T04:15:23.406Z,95810
2018-02-17T04:17:53.066Z,95823
2018-02-17T04:20:21.254Z,95823
2018-02-17T04:22:49.389Z,95828
2018-02-17T04:25:31.745Z,95828
2018-02-17T04:28:03.458Z,95833
2018-02-17T04:30:32.292Z,95823
2018-02-17T04:33:01.102Z,95798
2018-02-17T04:35:31.737Z,95797
2018-02-17T04:37:59.857Z,95786
2018-02-17T04:40:29.880Z,95788
2018-02-17T04:43:01.782Z,95783
2018-02-17T04:45:30.704Z,95771
2018-02-17T04:48:29.872Z,95769
2018-02-17T04:51:04.941Z,95775
2018-02-17T04:53:40.437Z,95757
2018-02-17T04:59:39.434Z,95749
2018-02-17T05:02:08.592Z,95749
2018-02-17T05:04:41.592Z,95747
2018-02-17T05:07:13.771Z,95750
2018-02-17T05:09:41.886Z,95738
2018-02-17T05:12:10.024Z,95732
2018-02-17T05:14:44.293Z,95715
2018-02-17T05:20:37.178Z,95702
2018-02-17T05:23:09.376Z,95707
2018-02-17T05:25:38.005Z,95697
2018-02-17T05:28:07.805Z,95692
2018-02-17T05:30:51.617Z,95699
2018-02-17T05:33:36.116Z,95688
2018-02-17T05:36:14.205Z,95685
2018-02-17T05:38:42.375Z,95672
2018-02-17T05:41:19.753Z,95670
2018-02-17T05:43:47.872Z,95676
2018-02-17T05:46:19.340Z,95680
2018-02-17T05:48:50.514Z,95679
2018-02-17T05:51:18.631Z,95679
2018-02-17T05:53:46.769Z,95661
2018-02-17T05:56:15.605Z,95671
2018-02-17T05:58:48.272Z,95687
2018-02-17T06:01:16.382Z,95669
2018-02-17T06:03:44.472Z,95659
2018-02-17T06:06:12.643Z,95670
2018-02-17T06:08:40.760Z,95670
2018-02-17T06:11:08.881Z,95671
2018-02-17T06:13:37.008Z,95670
2018-02-17T06:16:05.168Z,95651
2018-02-17T06:18:33.264Z,95654
2018-02-17T06:21:01.398Z,95654
2018-02-17T06:23:29.515Z,95648
2018-02-17T06:25:57.672Z,95639
2018-02-17T06:28:25.925Z,95617
2018-02-17T06:30:54.065Z,95617
2018-02-17T06:33:22.169Z,95619
2018-02-17T06:35:50.292Z,95633
2018-02-17T06:38:18.413Z,95621
2018-02-17T06:40:46.512Z,95608
2018-02-17T06:43:14.620Z,95610
2018-02-17T06:45:42.733Z,95612
2018-02-17T06:48:10.894Z,95607
2018-02-17T06:50:39.560Z,95599
2018-02-17T06:53:08.548Z,95593
2018-02-17T06:55:36.632Z,95595
2018-02-17T06:58:04.790Z,95588
2018-02-17T07:00:32.976Z,95574
2018-02-17T07:03:01.066Z,95573
2018-02-17T07:05:29.198Z,95569
2018-02-17T07:07:57.349Z,95570
2018-02-17T07:10:25.494Z,95552
2018-02-17T07:12:53.651Z,95548
2018-02-17T07:15:21.761Z,95541
2018-02-17T07:17:50.069Z,95528
2018-02-17T07:20:23.773Z,95553
2018-02-17T07:22:51.865Z,95564
2018-02-17T07:25:20.738Z,95568
2018-02-17T07:27:49.745Z,95555
2018-02-17T07:30:17.897Z,95544
2018-02-17T07:32:46.047Z,95529
2018-02-17T07:35:14.219Z,95538
2018-02-17T07:37:42.361Z,95527
2018-02-17T07:40:10.494Z,95525
2018-02-17T07:42:38.613Z,95512
2018-02-17T07:45:06.718Z,95505
2018-02-17T07:47:34.839Z,95519
2018-02-17T07:50:02.938Z,95504
2018-02-17T07:52:31.061Z,95511
2018-02-17T07:54:59.158Z,95512
2018-02-17T07:57:27.297Z,95521
2018-02-17T07:59:55.414Z,95529
2018-02-17T08:02:23.604Z,95528
2018-02-17T08:04:51.719Z,95544
2018-02-17T08:07:19.825Z,95538
2018-02-17T08:09:47.962Z,95529
2018-02-17T08:12:16.830Z,95523
2018-02-17T08:14:45.562Z,95526
2018-02-17T08:17:13.786Z,95518
2018-02-17T08:19:41.908Z,95535
2018-02-17T08:22:10.113Z,95521
2018-02-17T08:24:38.372Z,95510
2018-02-17T08:27:07.261Z,95522
2018-02-17T08:29:35.385Z,95499
2018-02-17T08:32:03.486Z,95509
2018-02-17T08:34:31.592Z,95507
2018-02-17T08:36:59.720Z,95495
2018-02-17T08:39:27.878Z,95488
2018-02-17T08:41:56.006Z,95464
2018-02-17T08:44:24.135Z,95460
2018-02-17T08:46:52.259Z,95451
2018-02-17T08:49:20.395Z,95441
2018-02-17T08:51:48.507Z,95404
2018-02-17T08:54:17.130Z,95398
2018-02-17T08:56:45.279Z,95391
2018-02-17T08:59:13.475Z,95371
2018-02-17T09:01:41.569Z,95384
2018-02-17T09:04:09.697Z,95395
2018-02-17T09:06:37.893Z,95396
2018-02-17T09:09:05.987Z,95390
2018-02-17T09:11:34.437Z,95358
2018-02-17T09:14:02.537Z,95356
2018-02-17T09:16:30.693Z,95349
2018-02-17T09:18:58.820Z,95333
2018-02-17T09:21:27.078Z,95324
2018-02-17T09:23:55.984Z,95327
2018-02-17T09:26:24.088Z,95328
2018-02-17T09:28:52.236Z,95327
2018-02-17T09:31:20.346Z,95331
2018-02-17T09:33:48.794Z,95347
2018-02-17T09:36:16.964Z,95355
2018-02-17T09:38:45.133Z,95362
2018-02-17T09:41:13.409Z,95363
2018-02-17T09:43:41.571Z,95365
2018-02-17T09:46:09.723Z,95361
2018-02-17T09:48:38.071Z,95361
2018-02-17T09:51:06.979Z,95362
2018-02-17T09:53:35.142Z,95366
2018-02-17T09:56:03.281Z,95383
2018-02-17T09:58:36.011Z,95386
2018-02-17T10:01:04.117Z,95383
2018-02-17T10:03:32.240Z,95376
2018-02-17T10:06:00.584Z,95386
2018-02-17T10:08:28.802Z,95376
2018-02-17T10:10:57.153Z,95386
2018-02-17T10:13:25.280Z,95385
2018-02-17T10:15:53.460Z,95386
2018-02-17T10:18:21.642Z,95380
2018-02-17T10:20:50.213Z,95380
2018-02-17T10:23:19.129Z,95382
2018-02-17T10:25:47.227Z,95392
2018-02-17T10:28:15.335Z,95381
2018-02-17T10:30:43.444Z,95398
2018-02-17T10:33:11.895Z,95397
2018-02-17T10:35:40.044Z,95387
2018-02-17T10:38:08.771Z,95390
2018-02-17T10:40:36.940Z,95377
2018-02-17T10:43:05.147Z,95369
2018-02-17T10:45:33.283Z,95361
2018-02-17T10:48:01.512Z,95363
2018-02-17T10:50:29.616Z,95365
2018-02-17T10:52:57.736Z,95364
2018-02-17T10:55:31.446Z,95360
2018-02-17T10:57:59.528Z,95373
2018-02-17T11:00:27.624Z,95362
2018-02-17T11:02:55.748Z,95355
2018-02-17T11:05:23.866Z,95347
2018-02-17T11:07:51.968Z,95332
2018-02-17T11:10:20.068Z,95334
2018-02-17T11:12:48.202Z,95317
2018-02-17T11:15:16.287Z,95324
2018-02-17T11:17:44.392Z,95331
2018-02-17T11:20:12.630Z,95328
2018-02-17T11:22:40.740Z,95333
2018-02-17T11:25:08.943Z,95329
2018-02-17T11:27:37.080Z,95315
2018-02-17T11:30:05.218Z,95322
2018-02-17T11:32:33.309Z,95304
2018-02-17T11:35:01.445Z,95302
2018-02-17T11:37:29.548Z,95304
2018-02-17T11:39:57.764Z,95291
2018-02-17T11:42:25.992Z,95291
2018-02-17T11:44:54.149Z,95279
2018-02-17T11:47:22.273Z,95277
2018-02-17T11:49:50.367Z,95272
2018-02-17T11:52:18.471Z,95259
2018-02-17T11:54:47.369Z,95259
2018-02-17T11:57:15.483Z,95257
2018-02-17T11:59:43.765Z,95249
2018-02-17T12:02:11.883Z,95242
2018-02-17T12:04:40.009Z,95245
2018-02-17T12:07:08.213Z,95233
2018-02-17T12:09:36.323Z,95232
2018-02-17T12:12:05.088Z,95245
2018-02-17T12:14:33.952Z,95235
2018-02-17T12:17:02.118Z,95241
2018-02-17T12:19:30.238Z,95244
2018-02-17T12:21:58.416Z,95247
2018-02-17T12:24:26.524Z,95254
2018-02-17T12:26:54.642Z,95250
2018-02-17T12:29:23.051Z,95255
2018-02-17T12:31:51.219Z,95250
2018-02-17T12:34:19.380Z,95260
2018-02-17T12:36:47.475Z,95250
2018-02-17T12:39:15.628Z,95245
2018-02-17T12:41:43.723Z,95244
2018-02-17T12:44:11.879Z,95252
2018-02-17T12:46:39.991Z,95248
2018-02-17T12:49:08.129Z,95247
2018-02-17T12:51:36.233Z,95249
2018-02-17T12:54:04.393Z,95240
2018-02-17T12:56:32.797Z,95238
2018-02-17T12:59:00.977Z,95241
2018-02-17T13:01:29.166Z,95248
2018-02-17T13:03:57.274Z,95238
2018-02-17T13:06:25.390Z,95245
2018-02-17T13:08:53.634Z,95249
2018-02-17T13:11:21.769Z,95253
2018-02-17T13:13:49.880Z,95268
2018-02-17T13:16:18.018Z,95279
2018-02-17T13:18:46.156Z,95276
2018-02-17T13:21:14.294Z,95287
2018-02-17T13:23:42.423Z,95285
2018-02-17T13:26:10.817Z,95274
2018-02-17T13:28:39.000Z,95282
2018-02-17T13:31:07.112Z,95294
2018-02-17T13:33:35.245Z,95276
2018-02-17T13:36:03.375Z,95278
2018-02-17T13:38:31.695Z,95284
2018-02-17T13:40:59.898Z,95280
2018-02-17T13:43:28.106Z,95287
2018-02-17T13:45:56.323Z,95281
2018-02-17T13:48:24.450Z,95278
2018-02-17T13:50:52.594Z,95264
2018-02-17T13:53:20.951Z,95269
2018-02-17T13:55:49.067Z,95272
2018-02-17T13:58:17.158Z,95272
2018-02-17T14:00:45.269Z,95280
2018-02-17T14:03:13.376Z,95284
2018-02-17T14:05:41.568Z,95292
2018-02-17T14:08:09.680Z,95285
2018-02-17T14:10:37.924Z,95283
2018-02-17T14:13:06.270Z,95295
2018-02-17T14:15:34.625Z,95284
2018-02-17T14:18:02.749Z,95272
2018-02-17T14:20:30.864Z,95265
2018-02-17T14:22:59.080Z,95277
2018-02-17T14:25:27.338Z,95273
2018-02-17T14:27:55.465Z,95275
2018-02-17T14:30:23.615Z,95288
2018-02-17T14:32:52.253Z,95290
2018-02-17T14:35:21.176Z,95299
2018-02-17T14:37:49.283Z,95293
2018-02-17T14:40:18.193Z,95279
2018-02-17T14:42:46.318Z,95274
2018-02-17T14:45:14.444Z,95286
2018-02-17T14:47:42.547Z,95281
2018-02-17T14:50:11.142Z,95284
2018-02-17T14:52:39.544Z,95279
2018-02-17T14:55:07.685Z,95272
2018-02-17T14:57:35.793Z,95274
2018-02-17T15:00:03.906Z,95270
2018-02-17T15:02:32.109Z,95270
2018-02-17T15:05:00.291Z,95263
2018-02-17T15:07:28.688Z,95256
2018-02-17T15:09:56.986Z,95262
2018-02-17T15:12:25.142Z,95260
2018-02-17T15:14:53.271Z,95258
2018-02-17T15:17:21.805Z,95263
2018-02-17T15:19:51.477Z,95275
2018-02-17T15:22:19.573Z,95271
2018-02-17T15:24:48.418Z,95273
2018-02-17T15:27:16.824Z,95271
2018-02-17T15:29:44.952Z,95276
2018-02-17T15:32:13.688Z,95273
2018-02-17T15:34:41.845Z,95271
2018-02-17T15:37:10.168Z,95269
2018-02-17T15:39:38.344Z,95261
2018-02-17T15:42:06.929Z,95259
2018-02-17T15:44:35.817Z,95258
2018-02-17T15:47:04.694Z,95270
2018-02-17T15:49:32.788Z,95257
2018-02-17T15:52:00.960Z,95266
2018-02-17T15:54:29.064Z,95267
2018-02-17T15:56:58.414Z,95262
2018-02-17T15:59:26.618Z,95268
2018-02-17T16:01:54.839Z,95274
2018-02-17T16:04:23.035Z,95276
2018-02-17T16:06:51.136Z,95283
2018-02-17T16:09:19.283Z,95286
2018-02-17T16:11:47.405Z,95279
2018-02-17T16:14:15.576Z,95285
2018-02-17T16:16:43.679Z,95295
2018-02-17T16:19:11.831Z,95307
2018-02-17T16:21:39.926Z,95302
2018-02-17T16:24:08.114Z,95305
2018-02-17T16:26:36.379Z,95309
2018-02-17T16:29:04.563Z,95311
2018-02-17T16:31:32.822Z,95308
2018-02-17T16:34:01.033Z,95315
2018-02-17T16:36:29.318Z,95330
2018-02-17T16:38:57.576Z,95332
2018-02-17T16:41:25.754Z,95332
2018-02-17T16:43:54.044Z,95336
2018-02-17T16:46:22.285Z,95339
2018-02-17T16:48:50.435Z,95355
2018-02-17T16:51:18.625Z,95354
2018-02-17T16:53:46.741Z,95361
2018-02-17T16:56:14.858Z,95372
2018-02-17T16:58:43.042Z,95369
2018-02-17T17:01:27.110Z,95377
2018-02-17T17:10:14.322Z,95393
2018-02-17T17:12:59.753Z,95403
2018-02-17T17:18:59.239Z,95402
2018-02-17T17:21:53.273Z,95398
2018-02-17T17:24:55.588Z,95405
2018-02-17T17:27:58.909Z,95411
2018-02-17T17:33:05.454Z,95411
2018-02-17T17:35:48.706Z,95417
2018-02-17T17:38:22.460Z,95427
2018-02-17T17:43:48.812Z,95435
2018-02-17T17:46:32.049Z,95435
2018-02-17T17:49:01.797Z,95432
2018-02-17T17:54:15.120Z,95440
2018-02-17T17:56:51.263Z,95441
2018-02-17T17:59:40.982Z,95443
2018-02-17T18:15:51.805Z,95480
2018-02-17T18:18:21.647Z,95480
2018-02-17T18:20:54.301Z,95482
2018-02-17T18:26:43.112Z,95488
2018-02-17T18:29:58.189Z,95484
2018-02-17T18:35:46.921Z,95505
2018-02-17T18:38:15.099Z,95504
2018-02-17T18:40:44.345Z,95493
2018-02-17T18:43:12.473Z,95500
2018-02-17T18:45:41.648Z,95509
2018-02-17T18:48:09.809Z,95500
2018-02-17T18:50:37.958Z,95493
2018-02-17T18:53:06.480Z,95516
2018-02-17T18:55:34.673Z,95509
2018-02-17T18:58:03.718Z,95514
2018-02-17T19:00:32.727Z,95513
2018-02-17T19:03:01.358Z,95515
2018-02-17T19:05:31.167Z,95501
2018-02-17T19:07:59.338Z,95513
2018-02-17T19:10:28.353Z,95512
2018-02-17T19:12:56.554Z,95523
2018-02-17T19:15:25.880Z,95520
2018-02-17T19:17:54.082Z,95519
2018-02-17T19:20:22.972Z,95529
2018-02-17T19:22:51.976Z,95532
2018-02-17T19:25:20.883Z,95543
2018-02-17T19:27:49.085Z,95545
2018-02-17T19:30:17.990Z,95549
2018-02-17T19:32:46.975Z,95545
2018-02-17T19:35:16.011Z,95542
2018-02-17T19:37:44.994Z,95540
2018-02-17T19:40:13.328Z,95539
2018-02-17T19:42:41.531Z,95547
2018-02-17T19:45:09.819Z,95554
2018-02-17T19:47:39.173Z,95560
2018-02-17T19:50:08.213Z,95555
2018-02-17T19:52:36.434Z,95565
2018-02-17T19:55:04.595Z,95558
2018-02-17T19:57:33.625Z,95573
2018-02-17T20:00:01.834Z,95556
2018-02-17T20:02:30.014Z,95560
2018-02-17T20:04:58.222Z,95561
2018-02-17T20:07:27.164Z,95564
2018-02-17T20:09:55.305Z,95569
2018-02-17T20:12:23.561Z,95566
2018-02-17T20:14:51.807Z,95576
2018-02-17T20:17:21.063Z,95572
2018-02-17T20:19:49.992Z,95582
2018-02-17T20:22:18.159Z,95596
2018-02-17T20:24:46.317Z,95590
2018-02-17T20:27:15.724Z,95591
2018-02-17T20:29:43.900Z,95602
2018-02-17T20:32:12.018Z,95596
2018-02-17T20:34:41.201Z,95611
2018-02-17T20:37:09.389Z,95616
2018-02-17T20:39:38.317Z,95619
2018-02-17T20:42:06.442Z,95611
2018-02-17T20:44:35.422Z,95618
2018-02-17T20:47:04.351Z,95625
2018-02-17T20:49:32.476Z,95616
2018-02-17T20:52:00.652Z,95624
2018-02-17T20:54:28.800Z,95629
2018-02-17T20:56:56.978Z,95637
2018-02-17T20:59:25.144Z,95629
2018-02-17T21:01:53.301Z,95632
2018-02-17T21:04:21.443Z,95642
2018-02-17T21:06:49.726Z,95643
2018-02-17T21:09:18.635Z,95641
2018-02-17T21:11:47.880Z,95645
2018-02-17T21:14:16.073Z,95653
2018-02-17T21:16:44.942Z,95651
2018-02-17T21:19:13.999Z,95657
2018-02-17T21:21:42.875Z,95662
2018-02-17T21:24:11.802Z,95669
2018-02-17T21:26:39.947Z,95669
2018-02-17T21:29:08.871Z,95680
2018-02-17T21:31:37.012Z,95676
2018-02-17T21:34:05.958Z,95679
2018-02-17T21:36:35.370Z,95686
2018-02-17T21:39:03.515Z,95695
2018-02-17T21:41:31.695Z,95685
2018-02-17T21:43:59.850Z,95682
2018-02-17T21:46:28.030Z,95689
2018-02-17T21:48:56.172Z,95692
2018-02-17T21:51:25.092Z,95692
2018-02-17T21:53:53.296Z,95708
2018-02-17T21:56:21.473Z,95706
2018-02-17T21:58:49.666Z,95704
2018-02-17T22:01:18.852Z,95706
2018-02-17T22:03:47.034Z,95722
2018-02-17T22:06:15.182Z,95726
2018-02-17T22:08:43.352Z,95733
2018-02-17T22:11:11.503Z,95732
2018-02-17T22:13:39.678Z,95733
2018-02-17T22:16:07.818Z,95728
2018-02-17T22:18:36.000Z,95754
2018-02-17T22:21:04.978Z,95742
2018-02-17T22:23:33.153Z,95739
2018-02-17T22:26:02.607Z,95737
2018-02-17T22:28:30.843Z,95745
2018-02-17T22:30:59.897Z,95749
2018-02-17T22:33:28.050Z,95755
2018-02-17T22:35:57.606Z,95763
2018-02-17T22:38:30.150Z,95764
2018-02-17T22:40:58.318Z,95766
2018-02-17T22:43:27.248Z,95768
2018-02-17T22:45:55.379Z,95773
2018-02-17T22:48:23.540Z,95773
2018-02-17T22:50:51.709Z,95773
2018-02-17T22:53:19.893Z,95782
2018-02-17T22:55:48.062Z,95782
2018-02-17T22:58:16.187Z,95776
2018-02-17T23:00:44.362Z,95779
2018-02-17T23:03:12.618Z,95780
2018-02-17T23:05:40.833Z,95778
2018-02-17T23:08:08.971Z,95781
2018-02-17T23:10:37.109Z,95788
2018-02-17T23:13:05.271Z,95796
2018-02-17T23:15:33.411Z,95807
2018-02-17T23:18:01.549Z,95800
2018-02-17T23:20:29.793Z,95816
2018-02-17T23:22:59.647Z,95807
2018-02-17T23:25:27.818Z,95811
2018-02-17T23:27:55.963Z,95814
2018-02-17T23:30:24.836Z,95816
2018-02-17T23:32:52.989Z,95818
2018-02-17T23:35:21.183Z,95813
2018-02-17T23:37:49.330Z,95819
2018-02-17T23:40:17.560Z,95816
2018-02-17T23:42:45.796Z,95831
2018-02-17T23:45:14.004Z,95822
2018-02-17T23:47:42.947Z,95828
2018-02-17T23:50:11.070Z,95838
2018-02-17T23:52:39.964Z,95836
2018-02-17T23:55:08.231Z,95832
2018-02-17T23:57:37.147Z,95839
